Time;durP1;ratioP1;P1;durP2;ratioP2;P2;SDS_P1;SDS_P2;PMS_P1;PMS_P2;Temp;Humidity;BMP_temperature;BMP_pressure;BME280_temperature;BME280_humidity;BME280_pressure;Samples;Min_cycle;Max_cycle;Signal;HPM_P1;HPM_P2
2022/12/16 00:01:23;;;;;;;27.10;16.77;;;1.20;99.90;;;;;;5059239;28;20063;-76
2022/12/16 00:03:53;;;;;;;25.85;15.73;;;1.20;99.90;;;;;;5058950;28;20044;-76
2022/12/16 00:06:20;;;;;;;23.73;15.07;;;1.20;99.90;;;;;;5077596;28;20327;-75
2022/12/16 00:08:46;;;;;;;26.17;14.90;;;1.20;99.90;;;;;;5058970;28;20133;-75
2022/12/16 00:11:12;;;;;;;23.08;14.82;;;1.20;99.90;;;;;;5058819;28;20102;-75
2022/12/16 00:13:39;;;;;;;28.70;15.80;;;1.20;99.90;;;;;;5077233;28;20044;-75
2022/12/16 00:16:10;;;;;;;26.05;15.57;;;1.20;99.90;;;;;;5042103;28;20381;-75
2022/12/16 00:18:38;;;;;;;21.92;14.38;;;1.20;99.90;;;;;;5076840;28;20044;-74
2022/12/16 00:21:04;;;;;;;23.70;14.27;;;1.20;99.90;;;;;;5076439;28;20048;-75
2022/12/16 00:23:31;;;;;;;22.55;13.95;;;1.20;99.90;;;;;;5076424;28;20083;-74
2022/12/16 00:25:56;;;;;;;27.02;14.82;;;1.10;99.90;;;;;;5058621;28;20045;-74
2022/12/16 00:28:22;;;;;;;23.23;13.23;;;1.10;99.90;;;;;;5042100;28;20094;-74
2022/12/16 00:30:53;;;;;;;20.00;12.07;;;1.10;99.90;;;;;;5058448;28;20083;-75
2022/12/16 00:33:19;;;;;;;25.38;12.30;;;1.10;99.90;;;;;;5076724;28;20037;-74
2022/12/16 00:35:45;;;;;;;22.25;13.02;;;1.00;99.90;;;;;;5075871;28;20053;-74
2022/12/16 00:38:11;;;;;;;26.97;12.20;;;1.00;99.90;;;;;;5059076;28;20291;-74
2022/12/16 00:40:37;;;;;;;17.80;11.02;;;0.90;99.90;;;;;;5058759;28;20283;-74
2022/12/16 00:43:03;;;;;;;18.23;11.07;;;1.00;99.90;;;;;;5058209;28;20044;-74
2022/12/16 00:45:29;;;;;;;28.90;11.33;;;0.90;99.90;;;;;;5059117;28;20056;-74
2022/12/16 00:47:55;;;;;;;21.65;11.27;;;0.90;99.90;;;;;;5076039;28;20051;-74
2022/12/16 00:50:20;;;;;;;22.63;11.07;;;0.90;99.90;;;;;;5041708;28;20477;-74
2022/12/16 00:52:47;;;;;;;18.93;9.20;;;0.90;99.90;;;;;;5076348;28;20053;-75
2022/12/16 00:55:13;;;;;;;17.45;10.30;;;0.90;99.90;;;;;;5041891;28;20044;-74
2022/12/16 00:57:39;;;;;;;23.48;10.63;;;0.80;99.90;;;;;;5075897;28;20044;-74
2022/12/16 01:00:08;;;;;;;19.20;10.60;;;0.80;99.90;;;;;;5058328;28;20048;-74
2022/12/16 01:02:34;;;;;;;19.10;10.35;;;0.80;99.90;;;;;;5076484;28;20114;-74
2022/12/16 01:04:59;;;;;;;18.33;9.70;;;0.70;99.90;;;;;;5058282;28;20384;-74
2022/12/16 01:07:25;;;;;;;17.27;10.23;;;0.70;99.90;;;;;;5058222;28;20522;-74
2022/12/16 01:09:51;;;;;;;16.70;9.70;;;0.70;99.90;;;;;;5041047;28;20131;-74
2022/12/16 01:12:16;;;;;;;15.77;10.27;;;0.60;99.90;;;;;;5057531;28;20051;-74
2022/12/16 01:14:42;;;;;;;21.93;10.07;;;0.60;99.90;;;;;;5075394;28;20082;-74
2022/12/16 01:17:08;;;;;;;16.03;9.03;;;0.60;99.90;;;;;;5058019;28;20048;-74
2022/12/16 01:19:33;;;;;;;19.67;9.67;;;0.50;99.90;;;;;;5075911;28;20127;-74
2022/12/16 01:21:59;;;;;;;18.00;9.33;;;0.50;99.90;;;;;;5075253;28;20065;-74
2022/12/16 01:24:25;;;;;;;21.10;9.43;;;0.40;99.90;;;;;;5075262;28;20040;-74
2022/12/16 01:26:50;;;;;;;18.13;9.10;;;0.50;99.90;;;;;;5058065;28;20365;-75
2022/12/16 01:29:16;;;;;;;20.43;9.30;;;0.50;99.90;;;;;;5075187;28;20056;-74
2022/12/16 01:31:42;;;;;;;19.80;9.17;;;0.40;99.90;;;;;;5075216;28;20052;-74
2022/12/16 01:34:08;;;;;;;14.87;8.27;;;0.40;99.90;;;;;;5057248;28;20052;-74
2022/12/16 01:36:34;;;;;;;13.63;8.60;;;0.40;99.90;;;;;;5074733;28;20060;-74
2022/12/16 01:39:00;;;;;;;18.97;8.83;;;0.40;99.90;;;;;;5074666;28;20165;-74
2022/12/16 01:41:25;;;;;;;18.63;9.17;;;0.40;99.90;;;;;;5074653;28;20057;-74
2022/12/16 01:43:51;;;;;;;13.83;7.90;;;0.30;99.90;;;;;;5075419;28;20144;-74
2022/12/16 01:46:22;;;;;;;18.43;9.43;;;0.40;99.90;;;;;;5075367;28;20045;-74
2022/12/16 01:48:58;;;;;;;16.75;8.15;;;0.40;99.90;;;;;;5074762;28;20093;-74
2022/12/16 01:51:34;;;;;;;18.33;9.00;;;0.30;99.90;;;;;;5040188;28;20140;-74
2022/12/16 01:54:09;;;;;;;17.88;7.63;;;0.30;99.90;;;;;;5040843;28;20048;-75
2022/12/16 01:56:41;;;;;;;17.58;8.73;;;0.30;99.90;;;;;;5056832;28;20036;-74
2022/12/16 01:59:07;;;;;;;17.67;8.38;;;0.30;99.90;;;;;;5075370;28;20104;-74
2022/12/16 02:01:33;;;;;;;18.83;8.40;;;0.20;99.90;;;;;;5074433;28;20084;-74
2022/12/16 02:04:01;;;;;;;16.13;7.93;;;0.20;99.90;;;;;;5056717;28;20083;-74
2022/12/16 02:06:29;;;;;;;15.05;7.95;;;0.20;99.90;;;;;;5074310;28;20040;-74
2022/12/16 02:08:57;;;;;;;14.10;7.57;;;0.20;99.90;;;;;;5075181;28;20444;-77
2022/12/16 02:11:45;;;;;;;15.48;8.35;;;0.20;99.90;;;;;;5056645;28;20055;-74
2022/12/16 02:14:27;;;;;;;18.05;8.60;;;0.30;99.90;;;;;;5074779;28;20044;-74
2022/12/16 02:17:33;;;;;;;16.13;7.95;;;0.20;99.90;;;;;;5074297;28;20051;-74
2022/12/16 02:20:25;;;;;;;22.83;8.02;;;0.30;99.90;;;;;;5074947;28;20036;-75
2022/12/16 02:23:16;;;;;;;19.25;8.65;;;0.30;99.90;;;;;;5073172;28;20044;-74
2022/12/16 02:25:59;;;;;;;17.73;8.77;;;0.30;99.90;;;;;;5056594;28;20097;-75
2022/12/16 02:28:55;;;;;;;16.73;8.27;;;0.30;99.90;;;;;;5074666;28;20135;-74
2022/12/16 02:31:37;;;;;;;20.33;8.10;;;0.30;99.90;;;;;;5074201;28;20066;-75
2022/12/16 02:34:16;;;;;;;16.95;9.15;;;0.40;99.90;;;;;;5056123;28;20123;-75
2022/12/16 02:37:01;;;;;;;14.90;8.48;;;0.40;99.90;;;;;;5056236;28;20070;-74
2022/12/16 02:39:41;;;;;;;16.63;9.23;;;0.40;99.90;;;;;;5039877;28;20047;-75
2022/12/16 02:42:26;;;;;;;16.30;7.50;;;0.40;99.90;;;;;;5074560;28;20279;-75
2022/12/16 02:44:58;;;;;;;18.38;9.10;;;0.50;99.90;;;;;;5073777;28;20056;-74
2022/12/16 02:47:24;;;;;;;18.00;9.45;;;0.40;99.90;;;;;;5074118;28;20472;-75
2022/12/16 02:49:52;;;;;;;17.37;9.50;;;0.40;99.90;;;;;;5073810;28;20137;-75
2022/12/16 02:52:27;;;;;;;17.25;8.95;;;0.40;99.90;;;;;;5055836;28;20044;-75
2022/12/16 02:55:06;;;;;;;17.90;9.45;;;0.50;99.90;;;;;;5055863;28;20048;-75
2022/12/16 02:58:07;;;;;;;16.88;9.45;;;0.50;99.90;;;;;;5056055;28;20060;-75
2022/12/16 03:00:46;;;;;;;14.10;8.23;;;0.50;99.90;;;;;;4957118;28;20586;-75
2022/12/16 03:03:28;;;;;;;17.67;9.25;;;0.50;99.90;;;;;;5029839;28;20558;-75
2022/12/16 03:05:55;;;;;;;18.73;8.90;;;0.50;99.90;;;;;;5073865;28;20053;-75
2022/12/16 03:08:36;;;;;;;17.52;9.07;;;0.50;99.90;;;;;;5056161;28;20388;-75
2022/12/16 03:11:05;;;;;;;17.92;9.82;;;0.50;99.90;;;;;;5073828;28;20059;-75
2022/12/16 03:13:42;;;;;;;17.30;9.23;;;0.60;99.90;;;;;;5055369;28;20507;-75
2022/12/16 03:16:11;;;;;;;16.58;8.88;;;0.60;99.90;;;;;;5039189;28;20048;-75
2022/12/16 03:18:42;;;;;;;16.90;9.52;;;0.60;99.90;;;;;;5055624;28;20080;-75
2022/12/16 03:21:08;;;;;;;21.27;9.88;;;0.60;99.90;;;;;;5073847;28;20064;-75
2022/12/16 03:23:37;;;;;;;21.33;9.48;;;0.60;99.90;;;;;;5073169;28;20048;-75
2022/12/16 03:26:09;;;;;;;18.77;9.48;;;0.60;99.90;;;;;;5073097;28;20049;-75
2022/12/16 03:29:07;;;;;;;21.83;9.50;;;0.60;99.90;;;;;;5055994;28;20369;-75
2022/12/16 03:32:02;;;;;;;16.27;8.95;;;0.60;99.90;;;;;;5053914;28;20143;-75
2022/12/16 03:34:42;;;;;;;17.95;9.50;;;0.50;99.90;;;;;;5072942;28;20061;-75
2022/12/16 03:37:11;;;;;;;16.63;9.30;;;0.60;99.90;;;;;;5059169;28;20060;-75
2022/12/16 03:39:42;;;;;;;17.52;9.15;;;0.60;99.90;;;;;;5059472;28;20052;-75
2022/12/16 03:42:10;;;;;;;15.80;8.40;;;0.50;99.90;;;;;;5077908;28;20088;-75
2022/12/16 03:44:36;;;;;;;14.35;8.88;;;0.50;99.90;;;;;;5059720;28;20060;-75
2022/12/16 03:47:02;;;;;;;18.17;8.63;;;0.40;99.90;;;;;;5058767;28;20132;-75
2022/12/16 03:49:28;;;;;;;17.52;8.82;;;0.40;99.90;;;;;;5059058;28;20091;-75
2022/12/16 03:51:54;;;;;;;15.30;8.80;;;0.40;99.90;;;;;;5059314;28;20133;-75
2022/12/16 03:54:22;;;;;;;19.90;9.02;;;0.40;99.90;;;;;;5058911;28;20049;-75
2022/12/16 03:56:47;;;;;;;16.38;8.98;;;0.40;99.90;;;;;;5076842;28;20048;-75
2022/12/16 03:59:13;;;;;;;19.40;8.83;;;0.30;99.90;;;;;;5076693;28;20101;-76
2022/12/16 04:01:40;;;;;;;15.17;8.03;;;0.30;99.90;;;;;;5076655;28;20051;-75
2022/12/16 04:04:06;;;;;;;15.77;8.82;;;0.40;99.90;;;;;;5059560;28;20083;-75
2022/12/16 04:06:32;;;;;;;17.30;8.80;;;0.30;99.90;;;;;;5059315;28;20106;-75
2022/12/16 04:08:57;;;;;;;17.00;8.57;;;0.30;99.90;;;;;;5059254;28;20045;-75
2022/12/16 04:25:15;;;;;;;17.83;8.45;;;0.20;99.90;;;;;;5076030;28;20481;-75
2022/12/16 04:27:45;;;;;;;13.27;8.25;;;0.10;99.90;;;;;;5076535;28;20044;-75
2022/12/16 04:30:19;;;;;;;14.82;8.20;;;0.10;99.90;;;;;;5076304;28;20087;-76
